sensor_id;sensor_type;location;lat;lon;timestamp;P1;durP1;ratioP1;P2;durP2;ratioP2
29934;SDS011;19905;53.370;-6.314;2022-07-04T00:02:10;2.42;;;0.80;;
29934;SDS011;19905;53.370;-6.314;2022-07-04T00:04:39;3.05;;;0.90;;
29934;SDS011;19905;53.370;-6.314;2022-07-04T00:07:09;4.30;;;0.85;;
29934;SDS011;19905;53.370;-6.314;2022-07-04T00:09:37;3.58;;;1.02;;
29934;SDS011;19905;53.370;-6.314;2022-07-04T00:12:07;4.55;;;0.80;;
29934;SDS011;19905;53.370;-6.314;2022-07-04T00:14:36;2.85;;;0.80;;
29934;SDS011;19905;53.370;-6.314;2022-07-04T00:17:10;5.35;;;0.90;;
29934;SDS011;19905;53.370;-6.314;2022-07-04T00:19:38;3.55;;;1.20;;
29934;SDS011;19905;53.370;-6.314;2022-07-04T00:22:07;6.40;;;1.00;;
29934;SDS011;19905;53.370;-6.314;2022-07-04T00:24:35;2.97;;;0.90;;
29934;SDS011;19905;53.370;-6.314;2022-07-04T00:27:04;3.10;;;1.00;;
29934;SDS011;19905;53.370;-6.314;2022-07-04T00:29:33;4.53;;;1.00;;
29934;SDS011;19905;53.370;-6.314;2022-07-04T00:32:02;3.40;;;0.82;;
29934;SDS011;19905;53.370;-6.314;2022-07-04T00:34:32;2.35;;;0.95;;
29934;SDS011;19905;53.370;-6.314;2022-07-04T00:37:01;2.00;;;0.77;;
29934;SDS011;19905;53.370;-6.314;2022-07-04T00:39:31;4.05;;;0.80;;
29934;SDS011;19905;53.370;-6.314;2022-07-04T00:42:06;6.88;;;0.70;;
29934;SDS011;19905;53.370;-6.314;2022-07-04T00:44:36;2.47;;;0.80;;
29934;SDS011;19905;53.370;-6.314;2022-07-04T00:47:05;2.83;;;0.80;;
29934;SDS011;19905;53.370;-6.314;2022-07-04T00:49:37;1.33;;;0.60;;
29934;SDS011;19905;53.370;-6.314;2022-07-04T00:52:06;3.47;;;0.80;;
29934;SDS011;19905;53.370;-6.314;2022-07-04T00:54:35;3.38;;;1.00;;
29934;SDS011;19905;53.370;-6.314;2022-07-04T00:57:03;3.03;;;0.85;;
29934;SDS011;19905;53.370;-6.314;2022-07-04T00:59:32;3.40;;;1.00;;
29934;SDS011;19905;53.370;-6.314;2022-07-04T01:02:02;2.53;;;0.80;;
29934;SDS011;19905;53.370;-6.314;2022-07-04T01:04:31;4.75;;;1.17;;
29934;SDS011;19905;53.370;-6.314;2022-07-04T01:07:01;3.53;;;0.93;;
29934;SDS011;19905;53.370;-6.314;2022-07-04T01:09:30;4.72;;;1.10;;
29934;SDS011;19905;53.370;-6.314;2022-07-04T01:11:58;1.63;;;0.82;;
29934;SDS011;19905;53.370;-6.314;2022-07-04T01:14:27;6.70;;;0.80;;
29934;SDS011;19905;53.370;-6.314;2022-07-04T01:16:56;4.03;;;0.90;;
29934;SDS011;19905;53.370;-6.314;2022-07-04T01:19:24;3.30;;;0.70;;
29934;SDS011;19905;53.370;-6.314;2022-07-04T01:21:54;4.68;;;1.05;;
29934;SDS011;19905;53.370;-6.314;2022-07-04T01:24:22;2.17;;;0.90;;
29934;SDS011;19905;53.370;-6.314;2022-07-04T01:26:51;3.83;;;0.80;;
29934;SDS011;19905;53.370;-6.314;2022-07-04T01:29:21;1.23;;;0.60;;
29934;SDS011;19905;53.370;-6.314;2022-07-04T01:31:53;3.17;;;0.90;;
29934;SDS011;19905;53.370;-6.314;2022-07-04T01:34:22;2.38;;;0.98;;
29934;SDS011;19905;53.370;-6.314;2022-07-04T01:36:51;1.33;;;0.80;;
29934;SDS011;19905;53.370;-6.314;2022-07-04T01:39:22;2.15;;;0.70;;
29934;SDS011;19905;53.370;-6.314;2022-07-04T01:41:51;2.40;;;0.70;;
29934;SDS011;19905;53.370;-6.314;2022-07-04T01:44:21;4.15;;;0.75;;
29934;SDS011;19905;53.370;-6.314;2022-07-04T01:46:50;3.33;;;0.60;;
29934;SDS011;19905;53.370;-6.314;2022-07-04T01:49:18;1.60;;;0.65;;
29934;SDS011;19905;53.370;-6.314;2022-07-04T01:51:48;4.47;;;0.60;;
29934;SDS011;19905;53.370;-6.314;2022-07-04T01:54:18;2.83;;;0.73;;
29934;SDS011;19905;53.370;-6.314;2022-07-04T01:56:49;3.50;;;0.80;;
29934;SDS011;19905;53.370;-6.314;2022-07-04T01:59:18;2.85;;;0.80;;
29934;SDS011;19905;53.370;-6.314;2022-07-04T02:02:06;2.33;;;0.80;;
29934;SDS011;19905;53.370;-6.314;2022-07-04T02:04:34;3.50;;;0.80;;
29934;SDS011;19905;53.370;-6.314;2022-07-04T02:07:03;2.15;;;0.70;;
29934;SDS011;19905;53.370;-6.314;2022-07-04T02:09:31;3.35;;;0.70;;
29934;SDS011;19905;53.370;-6.314;2022-07-04T02:12:02;3.22;;;0.80;;
29934;SDS011;19905;53.370;-6.314;2022-07-04T02:14:48;3.20;;;0.85;;
29934;SDS011;19905;53.370;-6.314;2022-07-04T02:17:17;3.10;;;0.80;;
29934;SDS011;19905;53.370;-6.314;2022-07-04T02:19:45;4.90;;;0.80;;
29934;SDS011;19905;53.370;-6.314;2022-07-04T02:22:14;2.35;;;0.60;;
29934;SDS011;19905;53.370;-6.314;2022-07-04T02:24:43;2.78;;;0.68;;
29934;SDS011;19905;53.370;-6.314;2022-07-04T02:27:14;3.53;;;0.60;;
29934;SDS011;19905;53.370;-6.314;2022-07-04T02:29:43;4.95;;;0.70;;
29934;SDS011;19905;53.370;-6.314;2022-07-04T02:32:12;3.50;;;0.77;;
29934;SDS011;19905;53.370;-6.314;2022-07-04T02:34:40;3.47;;;1.00;;
29934;SDS011;19905;53.370;-6.314;2022-07-04T02:37:09;1.98;;;1.20;;
29934;SDS011;19905;53.370;-6.314;2022-07-04T02:39:38;4.35;;;1.30;;
29934;SDS011;19905;53.370;-6.314;2022-07-04T02:42:07;3.78;;;1.05;;
29934;SDS011;19905;53.370;-6.314;2022-07-04T02:44:39;2.40;;;1.02;;
29934;SDS011;19905;53.370;-6.314;2022-07-04T02:47:08;6.85;;;1.30;;
29934;SDS011;19905;53.370;-6.314;2022-07-04T02:49:38;4.57;;;1.33;;
29934;SDS011;19905;53.370;-6.314;2022-07-04T02:52:09;3.45;;;1.00;;
29934;SDS011;19905;53.370;-6.314;2022-07-04T02:54:38;1.65;;;0.90;;
29934;SDS011;19905;53.370;-6.314;2022-07-04T02:57:08;2.50;;;1.17;;
29934;SDS011;19905;53.370;-6.314;2022-07-04T02:59:40;2.92;;;1.42;;
29934;SDS011;19905;53.370;-6.314;2022-07-04T03:02:10;5.60;;;1.27;;
29934;SDS011;19905;53.370;-6.314;2022-07-04T03:04:38;4.80;;;1.52;;
29934;SDS011;19905;53.370;-6.314;2022-07-04T03:07:10;2.42;;;1.50;;
29934;SDS011;19905;53.370;-6.314;2022-07-04T03:09:39;5.65;;;1.45;;
29934;SDS011;19905;53.370;-6.314;2022-07-04T03:12:08;5.63;;;1.35;;
29934;SDS011;19905;53.370;-6.314;2022-07-04T03:14:38;3.50;;;1.50;;
29934;SDS011;19905;53.370;-6.314;2022-07-04T03:17:07;3.92;;;1.10;;
29934;SDS011;19905;53.370;-6.314;2022-07-04T03:19:36;3.40;;;1.13;;
29934;SDS011;19905;53.370;-6.314;2022-07-04T03:22:04;3.40;;;1.30;;
29934;SDS011;19905;53.370;-6.314;2022-07-04T03:24:33;1.63;;;1.23;;
29934;SDS011;19905;53.370;-6.314;2022-07-04T03:27:01;4.93;;;1.75;;
29934;SDS011;19905;53.370;-6.314;2022-07-04T03:29:31;4.82;;;1.67;;
29934;SDS011;19905;53.370;-6.314;2022-07-04T03:32:00;3.83;;;1.48;;
29934;SDS011;19905;53.370;-6.314;2022-07-04T03:34:29;4.18;;;1.50;;
29934;SDS011;19905;53.370;-6.314;2022-07-04T03:36:57;4.15;;;1.20;;
29934;SDS011;19905;53.370;-6.314;2022-07-04T03:39:26;4.80;;;1.20;;
29934;SDS011;19905;53.370;-6.314;2022-07-04T03:41:55;3.55;;;1.25;;
29934;SDS011;19905;53.370;-6.314;2022-07-04T03:44:23;4.45;;;1.30;;
29934;SDS011;19905;53.370;-6.314;2022-07-04T03:46:53;4.90;;;1.50;;
29934;SDS011;19905;53.370;-6.314;2022-07-04T03:49:23;5.32;;;1.20;;
29934;SDS011;19905;53.370;-6.314;2022-07-04T03:51:52;5.70;;;1.20;;
29934;SDS011;19905;53.370;-6.314;2022-07-04T03:54:21;3.85;;;1.30;;
29934;SDS011;19905;53.370;-6.314;2022-07-04T03:56:49;5.10;;;1.00;;
29934;SDS011;19905;53.370;-6.314;2022-07-04T03:59:20;4.78;;;1.08;;
29934;SDS011;19905;53.370;-6.314;2022-07-04T04:01:49;3.75;;;1.10;;
29934;SDS011;19905;53.370;-6.314;2022-07-04T04:04:19;4.00;;;1.20;;
29934;SDS011;19905;53.370;-6.314;2022-07-04T04:07:09;4.22;;;1.38;;
29934;SDS011;19905;53.370;-6.314;2022-07-04T04:09:41;5.05;;;1.40;;
29934;SDS011;19905;53.370;-6.314;2022-07-04T04:12:11;4.88;;;1.40;;
29934;SDS011;19905;53.370;-6.314;2022-07-04T04:14:39;4.70;;;1.20;;
29934;SDS011;19905;53.370;-6.314;2022-07-04T04:17:09;3.13;;;1.23;;
29934;SDS011;19905;53.370;-6.314;2022-07-04T04:19:37;5.13;;;1.50;;
29934;SDS011;19905;53.370;-6.314;2022-07-04T04:22:05;2.65;;;1.40;;
29934;SDS011;19905;53.370;-6.314;2022-07-04T04:24:36;4.32;;;1.38;;
29934;SDS011;19905;53.370;-6.314;2022-07-04T04:27:05;4.75;;;1.25;;
29934;SDS011;19905;53.370;-6.314;2022-07-04T04:29:34;9.32;;;1.95;;
29934;SDS011;19905;53.370;-6.314;2022-07-04T04:32:02;5.70;;;1.70;;
29934;SDS011;19905;53.370;-6.314;2022-07-04T04:34:31;3.63;;;1.40;;
29934;SDS011;19905;53.370;-6.314;2022-07-04T04:37:01;6.97;;;1.60;;
29934;SDS011;19905;53.370;-6.314;2022-07-04T04:39:31;6.20;;;1.77;;
29934;SDS011;19905;53.370;-6.314;2022-07-04T04:42:01;3.10;;;1.35;;
29934;SDS011;19905;53.370;-6.314;2022-07-04T04:44:30;6.65;;;1.70;;
29934;SDS011;19905;53.370;-6.314;2022-07-04T04:47:00;7.20;;;1.80;;
29934;SDS011;19905;53.370;-6.314;2022-07-04T04:49:28;8.32;;;1.70;;
29934;SDS011;19905;53.370;-6.314;2022-07-04T04:51:57;6.80;;;2.00;;
29934;SDS011;19905;53.370;-6.314;2022-07-04T04:54:25;6.05;;;1.90;;
29934;SDS011;19905;53.370;-6.314;2022-07-04T04:56:54;7.60;;;2.00;;
29934;SDS011;19905;53.370;-6.314;2022-07-04T04:59:24;4.75;;;1.80;;
29934;SDS011;19905;53.370;-6.314;2022-07-04T05:01:53;8.75;;;1.80;;
29934;SDS011;19905;53.370;-6.314;2022-07-04T05:04:22;6.28;;;1.70;;
29934;SDS011;19905;53.370;-6.314;2022-07-04T05:06:50;10.60;;;1.85;;
29934;SDS011;19905;53.370;-6.314;2022-07-04T05:09:20;5.50;;;1.70;;
29934;SDS011;19905;53.370;-6.314;2022-07-04T05:11:49;9.00;;;2.40;;
29934;SDS011;19905;53.370;-6.314;2022-07-04T05:14:17;6.38;;;1.85;;
29934;SDS011;19905;53.370;-6.314;2022-07-04T05:16:49;6.60;;;1.88;;
29934;SDS011;19905;53.370;-6.314;2022-07-04T05:19:18;8.98;;;2.15;;
29934;SDS011;19905;53.370;-6.314;2022-07-04T05:21:48;6.00;;;2.10;;
29934;SDS011;19905;53.370;-6.314;2022-07-04T05:24:18;4.13;;;1.98;;
29934;SDS011;19905;53.370;-6.314;2022-07-04T05:26:46;7.60;;;2.40;;
29934;SDS011;19905;53.370;-6.314;2022-07-04T05:29:15;8.48;;;1.90;;
29934;SDS011;19905;53.370;-6.314;2022-07-04T05:31:44;9.95;;;2.08;;
29934;SDS011;19905;53.370;-6.314;2022-07-04T05:34:14;7.45;;;1.90;;
29934;SDS011;19905;53.370;-6.314;2022-07-04T05:36:44;8.32;;;2.05;;
29934;SDS011;19905;53.370;-6.314;2022-07-04T05:39:12;5.80;;;1.92;;
29934;SDS011;19905;53.370;-6.314;2022-07-04T05:41:41;9.02;;;2.38;;
29934;SDS011;19905;53.370;-6.314;2022-07-04T05:44:09;9.05;;;2.17;;
29934;SDS011;19905;53.370;-6.314;2022-07-04T05:46:38;7.90;;;1.90;;
29934;SDS011;19905;53.370;-6.314;2022-07-04T05:49:07;7.78;;;2.30;;
29934;SDS011;19905;53.370;-6.314;2022-07-04T05:51:37;8.52;;;2.05;;
29934;SDS011;19905;53.370;-6.314;2022-07-04T05:54:06;10.00;;;2.10;;
29934;SDS011;19905;53.370;-6.314;2022-07-04T05:56:36;8.60;;;2.33;;
29934;SDS011;19905;53.370;-6.314;2022-07-04T05:59:08;6.18;;;1.98;;
29934;SDS011;19905;53.370;-6.314;2022-07-04T06:01:38;6.03;;;2.10;;
29934;SDS011;19905;53.370;-6.314;2022-07-04T06:04:07;6.97;;;2.17;;
29934;SDS011;19905;53.370;-6.314;2022-07-04T06:06:38;7.88;;;2.42;;
29934;SDS011;19905;53.370;-6.314;2022-07-04T06:09:07;8.52;;;2.20;;
29934;SDS011;19905;53.370;-6.314;2022-07-04T06:11:43;8.25;;;2.20;;
29934;SDS011;19905;53.370;-6.314;2022-07-04T06:14:12;6.53;;;1.80;;
29934;SDS011;19905;53.370;-6.314;2022-07-04T06:16:41;9.23;;;1.98;;
29934;SDS011;19905;53.370;-6.314;2022-07-04T06:19:10;5.43;;;1.90;;
29934;SDS011;19905;53.370;-6.314;2022-07-04T06:21:40;5.80;;;1.85;;
29934;SDS011;19905;53.370;-6.314;2022-07-04T06:24:08;5.20;;;1.90;;
29934;SDS011;19905;53.370;-6.314;2022-07-04T06:26:37;7.80;;;2.20;;
29934;SDS011;19905;53.370;-6.314;2022-07-04T06:29:07;8.98;;;1.80;;
29934;SDS011;19905;53.370;-6.314;2022-07-04T06:31:35;10.63;;;1.95;;
29934;SDS011;19905;53.370;-6.314;2022-07-04T06:34:04;6.63;;;1.83;;
29934;SDS011;19905;53.370;-6.314;2022-07-04T06:36:55;6.72;;;2.08;;
29934;SDS011;19905;53.370;-6.314;2022-07-04T06:39:24;7.53;;;1.77;;
29934;SDS011;19905;53.370;-6.314;2022-07-04T06:41:52;8.70;;;1.80;;
29934;SDS011;19905;53.370;-6.314;2022-07-04T06:44:21;7.10;;;1.92;;
29934;SDS011;19905;53.370;-6.314;2022-07-04T06:46:49;5.68;;;1.95;;
29934;SDS011;19905;53.370;-6.314;2022-07-04T06:49:18;2.83;;;1.40;;
29934;SDS011;19905;53.370;-6.314;2022-07-04T06:51:47;4.85;;;1.50;;
29934;SDS011;19905;53.370;-6.314;2022-07-04T06:54:17;8.02;;;1.70;;
29934;SDS011;19905;53.370;-6.314;2022-07-04T06:56:48;5.22;;;1.60;;
29934;SDS011;19905;53.370;-6.314;2022-07-04T06:59:37;6.60;;;1.65;;
29934;SDS011;19905;53.370;-6.314;2022-07-04T07:02:07;8.80;;;1.60;;
29934;SDS011;19905;53.370;-6.314;2022-07-04T07:04:36;7.63;;;1.45;;
29934;SDS011;19905;53.370;-6.314;2022-07-04T07:07:05;4.88;;;1.25;;
29934;SDS011;19905;53.370;-6.314;2022-07-04T07:09:35;2.85;;;1.27;;
29934;SDS011;19905;53.370;-6.314;2022-07-04T07:12:03;5.45;;;1.20;;
29934;SDS011;19905;53.370;-6.314;2022-07-04T07:14:32;4.97;;;1.10;;
29934;SDS011;19905;53.370;-6.314;2022-07-04T07:17:01;4.88;;;1.30;;
29934;SDS011;19905;53.370;-6.314;2022-07-04T07:19:30;4.40;;;1.30;;
29934;SDS011;19905;53.370;-6.314;2022-07-04T07:22:00;4.15;;;1.20;;
29934;SDS011;19905;53.370;-6.314;2022-07-04T07:24:32;3.28;;;0.98;;
29934;SDS011;19905;53.370;-6.314;2022-07-04T07:27:05;3.70;;;1.20;;
29934;SDS011;19905;53.370;-6.314;2022-07-04T07:29:34;2.55;;;1.08;;
29934;SDS011;19905;53.370;-6.314;2022-07-04T07:32:03;1.83;;;0.80;;
29934;SDS011;19905;53.370;-6.314;2022-07-04T07:34:33;2.38;;;0.98;;
29934;SDS011;19905;53.370;-6.314;2022-07-04T07:37:02;3.08;;;1.00;;
29934;SDS011;19905;53.370;-6.314;2022-07-04T07:39:31;5.90;;;1.00;;
29934;SDS011;19905;53.370;-6.314;2022-07-04T07:42:09;8.35;;;1.40;;
29934;SDS011;19905;53.370;-6.314;2022-07-04T07:44:38;4.40;;;0.90;;
29934;SDS011;19905;53.370;-6.314;2022-07-04T07:47:06;7.28;;;1.13;;
29934;SDS011;19905;53.370;-6.314;2022-07-04T07:49:39;6.20;;;1.08;;
29934;SDS011;19905;53.370;-6.314;2022-07-04T07:52:08;4.95;;;1.10;;
29934;SDS011;19905;53.370;-6.314;2022-07-04T07:54:37;7.00;;;1.50;;
29934;SDS011;19905;53.370;-6.314;2022-07-04T07:57:26;5.40;;;1.00;;
29934;SDS011;19905;53.370;-6.314;2022-07-04T07:59:55;4.05;;;0.95;;
29934;SDS011;19905;53.370;-6.314;2022-07-04T08:02:24;6.97;;;1.10;;
29934;SDS011;19905;53.370;-6.314;2022-07-04T08:05:06;7.85;;;1.00;;
29934;SDS011;19905;53.370;-6.314;2022-07-04T08:07:36;5.10;;;0.98;;
29934;SDS011;19905;53.370;-6.314;2022-07-04T08:10:05;4.90;;;0.90;;
29934;SDS011;19905;53.370;-6.314;2022-07-04T08:12:36;6.13;;;0.93;;
29934;SDS011;19905;53.370;-6.314;2022-07-04T08:15:05;3.17;;;0.90;;
29934;SDS011;19905;53.370;-6.314;2022-07-04T08:17:35;6.82;;;0.90;;
29934;SDS011;19905;53.370;-6.314;2022-07-04T08:20:04;4.30;;;1.00;;
29934;SDS011;19905;53.370;-6.314;2022-07-04T08:22:33;6.60;;;1.10;;
29934;SDS011;19905;53.370;-6.314;2022-07-04T08:25:02;4.47;;;0.90;;
29934;SDS011;19905;53.370;-6.314;2022-07-04T08:27:31;6.28;;;0.98;;
29934;SDS011;19905;53.370;-6.314;2022-07-04T08:30:01;7.03;;;1.23;;
29934;SDS011;19905;53.370;-6.314;2022-07-04T08:32:31;3.78;;;0.90;;
29934;SDS011;19905;53.370;-6.314;2022-07-04T08:35:00;4.28;;;1.02;;
29934;SDS011;19905;53.370;-6.314;2022-07-04T08:37:29;3.10;;;0.70;;
29934;SDS011;19905;53.370;-6.314;2022-07-04T08:39:58;2.72;;;0.82;;
29934;SDS011;19905;53.370;-6.314;2022-07-04T08:42:26;5.10;;;0.85;;
29934;SDS011;19905;53.370;-6.314;2022-07-04T08:45:05;5.22;;;1.10;;
29934;SDS011;19905;53.370;-6.314;2022-07-04T08:47:35;3.97;;;0.82;;
29934;SDS011;19905;53.370;-6.314;2022-07-04T08:50:07;5.90;;;0.90;;
29934;SDS011;19905;53.370;-6.314;2022-07-04T08:52:38;2.45;;;0.90;;
29934;SDS011;19905;53.370;-6.314;2022-07-04T08:55:08;6.28;;;0.98;;
29934;SDS011;19905;53.370;-6.314;2022-07-04T08:57:56;4.63;;;0.88;;
29934;SDS011;19905;53.370;-6.314;2022-07-04T09:00:44;5.78;;;0.85;;
29934;SDS011;19905;53.370;-6.314;2022-07-04T09:03:13;5.75;;;1.02;;
29934;SDS011;19905;53.370;-6.314;2022-07-04T09:05:44;6.22;;;1.00;;
29934;SDS011;19905;53.370;-6.314;2022-07-04T09:08:13;6.55;;;0.80;;
29934;SDS011;19905;53.370;-6.314;2022-07-04T09:10:41;7.30;;;1.10;;
29934;SDS011;19905;53.370;-6.314;2022-07-04T09:13:11;8.73;;;1.00;;
29934;SDS011;19905;53.370;-6.314;2022-07-04T09:15:41;4.20;;;0.90;;
29934;SDS011;19905;53.370;-6.314;2022-07-04T09:18:23;5.78;;;1.05;;
29934;SDS011;19905;53.370;-6.314;2022-07-04T09:20:53;3.45;;;0.90;;
29934;SDS011;19905;53.370;-6.314;2022-07-04T09:23:23;9.23;;;1.23;;
29934;SDS011;19905;53.370;-6.314;2022-07-04T09:26:06;8.30;;;1.13;;
29934;SDS011;19905;53.370;-6.314;2022-07-04T09:28:40;7.88;;;0.90;;
29934;SDS011;19905;53.370;-6.314;2022-07-04T09:31:14;6.20;;;1.13;;
29934;SDS011;19905;53.370;-6.314;2022-07-04T09:33:49;5.53;;;1.10;;
29934;SDS011;19905;53.370;-6.314;2022-07-04T09:36:20;4.07;;;0.90;;
29934;SDS011;19905;53.370;-6.314;2022-07-04T09:39:06;8.00;;;1.17;;
29934;SDS011;19905;53.370;-6.314;2022-07-04T09:41:56;6.38;;;1.20;;
29934;SDS011;19905;53.370;-6.314;2022-07-04T09:44:26;3.22;;;1.10;;
29934;SDS011;19905;53.370;-6.314;2022-07-04T09:46:56;7.05;;;1.25;;
29934;SDS011;19905;53.370;-6.314;2022-07-04T09:49:26;5.93;;;1.10;;
29934;SDS011;19905;53.370;-6.314;2022-07-04T09:51:56;6.90;;;1.15;;
29934;SDS011;19905;53.370;-6.314;2022-07-04T09:54:24;6.72;;;1.30;;
29934;SDS011;19905;53.370;-6.314;2022-07-04T09:56:59;4.47;;;1.00;;
29934;SDS011;19905;53.370;-6.314;2022-07-04T09:59:29;6.05;;;1.20;;
29934;SDS011;19905;53.370;-6.314;2022-07-04T10:02:06;6.63;;;1.17;;
29934;SDS011;19905;53.370;-6.314;2022-07-04T10:04:47;6.90;;;0.90;;
29934;SDS011;19905;53.370;-6.314;2022-07-04T10:07:31;6.47;;;1.27;;
29934;SDS011;19905;53.370;-6.314;2022-07-04T10:12:57;4.40;;;0.93;;
29934;SDS011;19905;53.370;-6.314;2022-07-04T10:15:28;2.70;;;0.75;;
29934;SDS011;19905;53.370;-6.314;2022-07-04T10:17:57;3.13;;;0.93;;
29934;SDS011;19905;53.370;-6.314;2022-07-04T10:20:29;4.70;;;0.82;;
29934;SDS011;19905;53.370;-6.314;2022-07-04T10:22:58;6.35;;;0.90;;
29934;SDS011;19905;53.370;-6.314;2022-07-04T10:25:28;5.35;;;0.93;;
29934;SDS011;19905;53.370;-6.314;2022-07-04T10:27:57;5.88;;;0.93;;
29934;SDS011;19905;53.370;-6.314;2022-07-04T10:30:26;1.73;;;0.52;;
29934;SDS011;19905;53.370;-6.314;2022-07-04T10:33:00;4.72;;;0.90;;
29934;SDS011;19905;53.370;-6.314;2022-07-04T10:35:48;2.97;;;0.70;;
29934;SDS011;19905;53.370;-6.314;2022-07-04T10:38:21;2.45;;;0.77;;
29934;SDS011;19905;53.370;-6.314;2022-07-04T10:40:51;3.33;;;0.63;;
29934;SDS011;19905;53.370;-6.314;2022-07-04T10:43:37;4.82;;;0.88;;
29934;SDS011;19905;53.370;-6.314;2022-07-04T10:46:33;6.60;;;0.80;;
29934;SDS011;19905;53.370;-6.314;2022-07-04T10:49:17;3.55;;;0.80;;
29934;SDS011;19905;53.370;-6.314;2022-07-04T10:51:53;3.75;;;0.70;;
29934;SDS011;19905;53.370;-6.314;2022-07-04T10:54:28;3.80;;;0.90;;
29934;SDS011;19905;53.370;-6.314;2022-07-04T10:57:07;3.40;;;0.70;;
29934;SDS011;19905;53.370;-6.314;2022-07-04T10:59:39;3.42;;;0.80;;
29934;SDS011;19905;53.370;-6.314;2022-07-04T11:02:27;3.33;;;0.75;;
29934;SDS011;19905;53.370;-6.314;2022-07-04T11:04:58;6.00;;;1.10;;
29934;SDS011;19905;53.370;-6.314;2022-07-04T11:10:36;4.65;;;1.00;;
29934;SDS011;19905;53.370;-6.314;2022-07-04T11:16:05;4.30;;;0.73;;
29934;SDS011;19905;53.370;-6.314;2022-07-04T11:18:41;5.05;;;1.00;;
29934;SDS011;19905;53.370;-6.314;2022-07-04T11:21:20;5.72;;;0.90;;
29934;SDS011;19905;53.370;-6.314;2022-07-04T11:23:51;3.92;;;0.90;;
29934;SDS011;19905;53.370;-6.314;2022-07-04T11:26:22;6.38;;;1.20;;
29934;SDS011;19905;53.370;-6.314;2022-07-04T11:28:52;4.35;;;0.90;;
29934;SDS011;19905;53.370;-6.314;2022-07-04T11:31:20;4.65;;;1.02;;
29934;SDS011;19905;53.370;-6.314;2022-07-04T11:34:02;7.55;;;1.52;;
29934;SDS011;19905;53.370;-6.314;2022-07-04T11:36:30;5.43;;;0.90;;
29934;SDS011;19905;53.370;-6.314;2022-07-04T11:39:01;4.93;;;0.95;;
29934;SDS011;19905;53.370;-6.314;2022-07-04T11:41:31;4.85;;;1.20;;
29934;SDS011;19905;53.370;-6.314;2022-07-04T11:44:27;5.20;;;1.50;;
29934;SDS011;19905;53.370;-6.314;2022-07-04T11:47:14;4.82;;;1.02;;
29934;SDS011;19905;53.370;-6.314;2022-07-04T11:49:46;3.40;;;0.90;;
29934;SDS011;19905;53.370;-6.314;2022-07-04T11:52:17;6.90;;;1.08;;
29934;SDS011;19905;53.370;-6.314;2022-07-04T11:55:09;7.95;;;1.20;;
29934;SDS011;19905;53.370;-6.314;2022-07-04T11:57:40;3.28;;;0.90;;
29934;SDS011;19905;53.370;-6.314;2022-07-04T12:00:12;5.50;;;1.00;;
29934;SDS011;19905;53.370;-6.314;2022-07-04T12:02:43;3.83;;;1.05;;
29934;SDS011;19905;53.370;-6.314;2022-07-04T12:05:13;6.15;;;1.02;;
29934;SDS011;19905;53.370;-6.314;2022-07-04T12:07:43;4.07;;;0.93;;
29934;SDS011;19905;53.370;-6.314;2022-07-04T12:10:35;5.07;;;1.08;;
29934;SDS011;19905;53.370;-6.314;2022-07-04T12:13:05;3.35;;;0.75;;
29934;SDS011;19905;53.370;-6.314;2022-07-04T12:15:36;5.68;;;1.00;;
29934;SDS011;19905;53.370;-6.314;2022-07-04T12:18:15;5.38;;;1.30;;
29934;SDS011;19905;53.370;-6.314;2022-07-04T12:20:44;3.60;;;0.90;;
29934;SDS011;19905;53.370;-6.314;2022-07-04T12:23:14;3.53;;;0.90;;
29934;SDS011;19905;53.370;-6.314;2022-07-04T12:25:46;5.18;;;1.00;;
29934;SDS011;19905;53.370;-6.314;2022-07-04T12:28:16;7.07;;;1.10;;
29934;SDS011;19905;53.370;-6.314;2022-07-04T12:30:49;5.07;;;0.90;;
29934;SDS011;19905;53.370;-6.314;2022-07-04T12:33:20;5.50;;;1.02;;
29934;SDS011;19905;53.370;-6.314;2022-07-04T12:35:51;3.33;;;0.82;;
29934;SDS011;19905;53.370;-6.314;2022-07-04T12:38:22;4.93;;;0.95;;
29934;SDS011;19905;53.370;-6.314;2022-07-04T12:41:02;3.95;;;1.00;;
29934;SDS011;19905;53.370;-6.314;2022-07-04T12:43:44;4.65;;;1.00;;
29934;SDS011;19905;53.370;-6.314;2022-07-04T12:46:14;6.88;;;1.05;;
29934;SDS011;19905;53.370;-6.314;2022-07-04T12:48:54;4.45;;;1.05;;
29934;SDS011;19905;53.370;-6.314;2022-07-04T12:51:24;3.30;;;0.90;;
29934;SDS011;19905;53.370;-6.314;2022-07-04T12:53:55;3.78;;;1.00;;
29934;SDS011;19905;53.370;-6.314;2022-07-04T12:56:31;6.35;;;0.90;;
29934;SDS011;19905;53.370;-6.314;2022-07-04T12:59:03;3.58;;;0.90;;
29934;SDS011;19905;53.370;-6.314;2022-07-04T13:01:38;4.72;;;0.80;;
29934;SDS011;19905;53.370;-6.314;2022-07-04T13:04:07;5.90;;;1.17;;
29934;SDS011;19905;53.370;-6.314;2022-07-04T13:06:39;6.28;;;1.10;;
29934;SDS011;19905;53.370;-6.314;2022-07-04T13:09:08;4.68;;;1.13;;
29934;SDS011;19905;53.370;-6.314;2022-07-04T13:11:38;4.90;;;1.50;;
29934;SDS011;19905;53.370;-6.314;2022-07-04T13:14:25;4.68;;;1.20;;
29934;SDS011;19905;53.370;-6.314;2022-07-04T13:16:54;7.55;;;1.60;;
29934;SDS011;19905;53.370;-6.314;2022-07-04T13:19:22;6.80;;;1.30;;
29934;SDS011;19905;53.370;-6.314;2022-07-04T13:21:52;6.45;;;1.55;;
29934;SDS011;19905;53.370;-6.314;2022-07-04T13:24:22;4.20;;;1.20;;
29934;SDS011;19905;53.370;-6.314;2022-07-04T13:26:52;6.68;;;1.42;;
29934;SDS011;19905;53.370;-6.314;2022-07-04T13:29:21;4.80;;;1.20;;
29934;SDS011;19905;53.370;-6.314;2022-07-04T13:31:50;6.78;;;1.20;;
29934;SDS011;19905;53.370;-6.314;2022-07-04T13:34:18;4.43;;;1.60;;
29934;SDS011;19905;53.370;-6.314;2022-07-04T13:36:47;5.80;;;1.48;;
29934;SDS011;19905;53.370;-6.314;2022-07-04T13:39:18;7.65;;;1.55;;
29934;SDS011;19905;53.370;-6.314;2022-07-04T13:42:09;5.32;;;1.50;;
29934;SDS011;19905;53.370;-6.314;2022-07-04T13:44:39;7.00;;;1.35;;
29934;SDS011;19905;53.370;-6.314;2022-07-04T13:47:08;5.90;;;1.10;;
29934;SDS011;19905;53.370;-6.314;2022-07-04T13:49:36;5.20;;;1.10;;
29934;SDS011;19905;53.370;-6.314;2022-07-04T13:52:05;8.05;;;1.30;;
29934;SDS011;19905;53.370;-6.314;2022-07-04T13:54:34;5.45;;;1.42;;
29934;SDS011;19905;53.370;-6.314;2022-07-04T13:57:03;6.72;;;1.20;;
29934;SDS011;19905;53.370;-6.314;2022-07-04T13:59:34;3.50;;;1.00;;
29934;SDS011;19905;53.370;-6.314;2022-07-04T14:02:02;5.68;;;1.23;;
29934;SDS011;19905;53.370;-6.314;2022-07-04T14:04:31;4.20;;;1.10;;
29934;SDS011;19905;53.370;-6.314;2022-07-04T14:07:00;4.90;;;1.20;;
29934;SDS011;19905;53.370;-6.314;2022-07-04T14:09:35;4.38;;;1.20;;
29934;SDS011;19905;53.370;-6.314;2022-07-04T14:12:04;6.18;;;1.23;;
29934;SDS011;19905;53.370;-6.314;2022-07-04T14:14:35;4.30;;;1.45;;
29934;SDS011;19905;53.370;-6.314;2022-07-04T14:17:04;4.43;;;1.20;;
29934;SDS011;19905;53.370;-6.314;2022-07-04T14:19:53;5.72;;;1.20;;
29934;SDS011;19905;53.370;-6.314;2022-07-04T14:22:24;6.40;;;1.20;;
29934;SDS011;19905;53.370;-6.314;2022-07-04T14:24:52;5.53;;;1.35;;
29934;SDS011;19905;53.370;-6.314;2022-07-04T14:27:20;4.70;;;1.40;;
29934;SDS011;19905;53.370;-6.314;2022-07-04T14:29:50;7.85;;;2.40;;
29934;SDS011;19905;53.370;-6.314;2022-07-04T14:32:19;4.30;;;1.85;;
29934;SDS011;19905;53.370;-6.314;2022-07-04T14:34:48;5.38;;;1.75;;
29934;SDS011;19905;53.370;-6.314;2022-07-04T14:37:16;8.02;;;1.30;;
29934;SDS011;19905;53.370;-6.314;2022-07-04T14:39:45;5.93;;;1.30;;
29934;SDS011;19905;53.370;-6.314;2022-07-04T14:42:14;4.35;;;1.45;;
29934;SDS011;19905;53.370;-6.314;2022-07-04T14:44:43;5.55;;;1.30;;
29934;SDS011;19905;53.370;-6.314;2022-07-04T14:47:13;5.68;;;1.52;;
29934;SDS011;19905;53.370;-6.314;2022-07-04T14:49:42;5.43;;;1.20;;
29934;SDS011;19905;53.370;-6.314;2022-07-04T14:52:11;3.88;;;1.35;;
29934;SDS011;19905;53.370;-6.314;2022-07-04T14:54:40;7.43;;;1.15;;
29934;SDS011;19905;53.370;-6.314;2022-07-04T14:57:09;4.47;;;1.17;;
29934;SDS011;19905;53.370;-6.314;2022-07-04T14:59:39;6.43;;;1.40;;
29934;SDS011;19905;53.370;-6.314;2022-07-04T15:02:07;5.63;;;1.10;;
29934;SDS011;19905;53.370;-6.314;2022-07-04T15:04:37;7.10;;;1.48;;
29934;SDS011;19905;53.370;-6.314;2022-07-04T15:07:06;7.22;;;1.67;;